Brisas de Naguabo, Puerto Rico
Current Conditions -  °F | °C
As of 5:53 AM on Sunday 21 Dec 2014 (Local Time) from TJNR Reporting Station
Scattered Clouds Scattered Clouds  
Wind Chill: 78°   Ceiling: Unl
Heat Index: 80°   Visibility: 10mi
Dew Point: 67°   Wind: 12mph
Humidity: 68%   Direction: 60°ENE
Pressure: 30.04"   Gusts: 20mph
Location:  18.2147°N, 65.7358°W
Report Text: TJNR 210953Z AUTO 06010G17KT 10SM SCT032 26/19 A3004 RMK AO2 SLP173 T02560194 $
Loading
Personal Weather Stations






























Interactive Weather Map New forecast layout! Learn more

10-Day Weather Forecast

Advertisements
Track Severe Weather on mobile